Time;durP1;ratioP1;P1;durP2;ratioP2;P2;SDS_P1;SDS_P2;PMS_P1;PMS_P2;Temp;Humidity;BMP_temperature;BMP_pressure;BME280_temperature;BME280_humidity;BME280_pressure;Samples;Min_cycle;Max_cycle;Signal;HPM_P1;HPM_P2
2023/10/02 00:01:06;;;;;;;13.37;7.80;;;;;;;;;;5071693;28;20700;-55
2023/10/02 00:03:33;;;;;;;12.93;7.87;;;;;;;;;;5068389;28;20214;-56
2023/10/02 00:05:59;;;;;;;13.03;7.93;;;;;;;;;;5071877;28;20187;-55
2023/10/02 00:08:31;;;;;;;11.40;7.40;;;;;;;;;;5071913;28;20203;-55
2023/10/02 00:11:05;;;;;;;13.50;7.90;;;;;;;;;;5071840;28;20218;-55
2023/10/02 00:13:32;;;;;;;16.47;9.87;;;;;;;;;;5072034;28;20226;-55
2023/10/02 00:15:59;;;;;;;17.23;11.30;;;;;;;;;;5071656;28;20210;-55
2023/10/02 00:18:27;;;;;;;15.97;9.07;;;;;;;;;;5071788;28;20229;-55
2023/10/02 00:21:17;;;;;;;11.50;7.87;;;;;;;;;;5071600;28;20223;-55
2023/10/02 00:23:59;;;;;;;10.57;7.23;;;;;;;;;;5071589;28;20721;-55
2023/10/02 00:26:25;;;;;;;12.23;7.80;;;;;;;;;;5071794;28;20203;-55
2023/10/02 00:28:51;;;;;;;10.80;7.57;;;;;;;;;;5071680;28;20262;-55
2023/10/02 00:31:33;;;;;;;9.03;7.20;;;;;;;;;;5071742;28;20207;-55
2023/10/02 00:34:00;;;;;;;11.73;7.23;;;;;;;;;;5071673;28;20622;-55
2023/10/02 00:36:29;;;;;;;10.50;6.97;;;;;;;;;;5071511;28;20269;-55
2023/10/02 00:39:24;;;;;;;11.90;7.60;;;;;;;;;;5071254;28;20672;-55
2023/10/02 00:42:10;;;;;;;11.47;7.87;;;;;;;;;;5071442;28;20211;-56
2023/10/02 00:44:51;;;;;;;16.33;7.70;;;;;;;;;;5071311;28;20205;-55
2023/10/02 00:47:35;;;;;;;11.57;7.43;;;;;;;;;;5071413;28;20195;-56
2023/10/02 00:50:06;;;;;;;12.10;8.17;;;;;;;;;;5071537;28;20242;-56
2023/10/02 00:52:33;;;;;;;14.60;7.63;;;;;;;;;;5071729;28;20617;-55
2023/10/02 00:55:05;;;;;;;10.70;7.70;;;;;;;;;;5071371;28;20195;-54
2023/10/02 00:57:35;;;;;;;15.60;8.10;;;;;;;;;;5067764;28;20200;-53
2023/10/02 01:00:05;;;;;;;11.20;7.90;;;;;;;;;;5051196;28;20234;-54
2023/10/02 01:02:34;;;;;;;12.23;7.60;;;;;;;;;;5051329;28;20200;-54
2023/10/02 01:05:00;;;;;;;13.83;8.30;;;;;;;;;;5051051;28;20300;-54
2023/10/02 01:07:28;;;;;;;12.93;8.23;;;;;;;;;;5051120;28;20201;-54
2023/10/02 01:10:11;;;;;;;12.37;8.17;;;;;;;;;;5050873;28;20192;-53
2023/10/02 01:12:44;;;;;;;12.57;7.67;;;;;;;;;;5050938;28;20750;-53
2023/10/02 01:15:14;;;;;;;11.07;8.07;;;;;;;;;;5050777;28;20200;-53
2023/10/02 01:17:45;;;;;;;11.17;7.50;;;;;;;;;;5050991;28;20203;-53
2023/10/02 01:23:11;;;;;;;12.30;8.00;;;;;;;;;;5050924;28;20725;-53
2023/10/02 01:25:39;;;;;;;13.00;8.90;;;;;;;;;;5050918;28;20200;-53
2023/10/02 01:28:05;;;;;;;10.47;7.43;;;;;;;;;;5050834;28;20562;-53
2023/10/02 01:30:31;;;;;;;12.33;7.40;;;;;;;;;;5050884;28;20287;-53
2023/10/02 01:33:06;;;;;;;11.93;7.47;;;;;;;;;;5050736;28;20239;-53
2023/10/02 01:35:38;;;;;;;11.77;8.13;;;;;;;;;;5050785;28;20212;-53
2023/10/02 01:38:12;;;;;;;10.60;7.80;;;;;;;;;;5050830;28;20239;-53
2023/10/02 01:40:41;;;;;;;12.90;8.33;;;;;;;;;;5050499;28;20264;-53
2023/10/02 01:43:14;;;;;;;13.23;8.47;;;;;;;;;;5050595;28;20287;-53
2023/10/02 01:45:43;;;;;;;13.53;8.47;;;;;;;;;;5050727;28;20192;-54
2023/10/02 01:48:12;;;;;;;15.43;8.40;;;;;;;;;;5053764;28;20207;-53
2023/10/02 01:50:38;;;;;;;13.43;7.77;;;;;;;;;;5054367;28;20271;-53
2023/10/02 01:53:05;;;;;;;11.70;8.07;;;;;;;;;;5054303;28;20726;-53
2023/10/02 01:55:35;;;;;;;11.23;7.57;;;;;;;;;;5054256;28;20200;-53
2023/10/02 01:58:18;;;;;;;12.13;7.77;;;;;;;;;;5054205;28;20196;-53
2023/10/02 02:00:45;;;;;;;12.43;7.87;;;;;;;;;;5054007;28;20266;-53
2023/10/02 02:03:15;;;;;;;12.00;7.60;;;;;;;;;;5053948;28;20226;-53
2023/10/02 02:05:44;;;;;;;11.87;7.70;;;;;;;;;;5054062;28;20200;-53
2023/10/02 02:08:22;;;;;;;11.20;7.17;;;;;;;;;;5053820;28;20201;-53
2023/10/02 02:10:50;;;;;;;10.90;7.30;;;;;;;;;;5054019;28;20192;-53
2023/10/02 02:13:18;;;;;;;10.30;7.47;;;;;;;;;;5053801;28;20206;-53
2023/10/02 02:15:45;;;;;;;10.47;7.13;;;;;;;;;;5053816;28;20223;-53
2023/10/02 02:18:11;;;;;;;10.87;7.73;;;;;;;;;;5053756;28;20196;-53
2023/10/02 02:23:22;;;;;;;11.43;7.70;;;;;;;;;;5053793;28;20202;-53
2023/10/02 02:25:48;;;;;;;10.87;7.67;;;;;;;;;;5053810;28;20659;-53
2023/10/02 02:28:14;;;;;;;12.77;7.80;;;;;;;;;;5053510;28;20211;-53
2023/10/02 02:30:42;;;;;;;12.03;7.47;;;;;;;;;;5053477;28;20185;-53
2023/10/02 02:33:08;;;;;;;13.47;7.53;;;;;;;;;;5053387;28;20262;-53
2023/10/02 02:35:35;;;;;;;11.93;7.97;;;;;;;;;;5053574;28;20216;-53
2023/10/02 02:38:02;;;;;;;12.97;8.47;;;;;;;;;;5053524;28;20254;-53
2023/10/02 02:40:30;;;;;;;11.67;8.60;;;;;;;;;;5053153;28;20442;-53
2023/10/02 02:42:56;;;;;;;13.90;8.60;;;;;;;;;;5053202;28;20203;-53
2023/10/02 02:45:29;;;;;;;16.27;8.80;;;;;;;;;;5053037;28;20215;-53
2023/10/02 02:47:57;;;;;;;13.43;8.30;;;;;;;;;;5053118;28;20196;-53
2023/10/02 02:50:32;;;;;;;12.10;8.50;;;;;;;;;;5053093;28;20292;-53
2023/10/02 02:53:16;;;;;;;13.53;8.60;;;;;;;;;;5053052;28;20227;-53
2023/10/02 02:55:43;;;;;;;11.53;7.77;;;;;;;;;;5053149;28;20192;-53
2023/10/02 02:58:09;;;;;;;11.27;7.90;;;;;;;;;;5052871;28;20196;-53
2023/10/02 03:00:39;;;;;;;12.77;7.87;;;;;;;;;;5052990;28;20357;-53
2023/10/02 03:05:52;;;;;;;12.73;8.60;;;;;;;;;;5052945;28;20199;-53
2023/10/02 03:08:19;;;;;;;12.87;8.93;;;;;;;;;;5052841;28;20204;-53
2023/10/02 03:10:46;;;;;;;11.97;7.90;;;;;;;;;;5052923;28;20192;-53
2023/10/02 03:13:16;;;;;;;11.87;8.23;;;;;;;;;;5052697;28;20275;-53
2023/10/02 03:15:45;;;;;;;12.80;7.83;;;;;;;;;;5052724;28;20246;-53
2023/10/02 03:18:31;;;;;;;11.90;8.17;;;;;;;;;;5052461;28;20540;-53
2023/10/02 03:24:00;;;;;;;11.60;7.97;;;;;;;;;;5047657;28;20207;-53
2023/10/02 03:29:02;;;;;;;13.50;8.03;;;;;;;;;;5052460;28;20569;-53
2023/10/02 03:31:37;;;;;;;14.93;8.77;;;;;;;;;;5052409;28;20192;-53
2023/10/02 03:34:25;;;;;;;12.77;8.13;;;;;;;;;;5052425;28;20195;-53
2023/10/02 03:36:52;;;;;;;11.20;7.60;;;;;;;;;;5052253;28;20706;-53
2023/10/02 03:39:51;;;;;;;12.63;8.60;;;;;;;;;;5052108;28;20247;-53
2023/10/02 03:42:12;;;;;;;12.97;7.83;;;;;;;;;;5051980;28;20214;-53
2023/10/02 03:44:38;;;;;;;12.03;8.27;;;;;;;;;;5052173;28;20210;-53
2023/10/02 03:47:04;;;;;;;12.43;8.67;;;;;;;;;;5052135;28;20291;-53
2023/10/02 03:49:34;;;;;;;11.57;8.70;;;;;;;;;;5052242;28;20243;-53
2023/10/02 03:52:00;;;;;;;13.87;9.13;;;;;;;;;;5051940;28;20202;-53
2023/10/02 03:54:29;;;;;;;16.60;8.57;;;;;;;;;;5051917;28;20203;-53
2023/10/02 03:56:55;;;;;;;11.30;7.80;;;;;;;;;;5051875;28;20697;-54
2023/10/02 03:59:25;;;;;;;12.30;8.67;;;;;;;;;;5051729;28;20204;-54
2023/10/02 04:01:51;;;;;;;11.50;8.87;;;;;;;;;;5051863;28;20224;-53
2023/10/02 04:04:21;;;;;;;11.30;7.77;;;;;;;;;;5051815;28;20681;-54
2023/10/02 04:06:53;;;;;;;11.33;7.90;;;;;;;;;;5051888;28;20249;-54
2023/10/02 04:09:23;;;;;;;11.93;8.03;;;;;;;;;;5051357;28;20200;-53
2023/10/02 04:11:50;;;;;;;12.63;9.07;;;;;;;;;;5051754;28;20512;-53
2023/10/02 04:14:31;;;;;;;14.30;8.53;;;;;;;;;;5051810;28;20184;-53
2023/10/02 04:17:10;;;;;;;14.07;9.50;;;;;;;;;;5051521;28;20196;-54
2023/10/02 04:19:40;;;;;;;13.87;8.73;;;;;;;;;;5051533;28;20230;-53
2023/10/02 04:22:16;;;;;;;12.97;9.20;;;;;;;;;;5051401;28;20206;-53
2023/10/02 04:24:57;;;;;;;15.10;8.87;;;;;;;;;;5051747;28;20275;-54
2023/10/02 04:28:00;;;;;;;14.30;8.80;;;;;;;;;;5051417;28;20204;-53
2023/10/02 04:32:48;;;;;;;14.80;9.27;;;;;;;;;;5051467;28;20287;-54
2023/10/02 04:38:07;;;;;;;16.13;9.57;;;;;;;;;;5051315;28;20654;-54
2023/10/02 04:40:51;;;;;;;13.83;8.87;;;;;;;;;;5051198;28;20650;-54
2023/10/02 04:43:25;;;;;;;12.50;9.13;;;;;;;;;;5051208;28;20565;-54
2023/10/02 04:45:52;;;;;;;13.40;8.43;;;;;;;;;;5051172;28;20184;-54
2023/10/02 04:48:26;;;;;;;15.60;9.17;;;;;;;;;;5051096;28;20291;-54
2023/10/02 04:50:56;;;;;;;13.97;8.47;;;;;;;;;;5051213;28;20283;-54
2023/10/02 04:53:24;;;;;;;17.87;9.27;;;;;;;;;;5051098;28;20200;-53
2023/10/02 04:56:07;;;;;;;14.73;9.20;;;;;;;;;;5051280;28;20594;-54
2023/10/02 04:58:36;;;;;;;11.37;8.60;;;;;;;;;;5051265;28;20275;-54
2023/10/02 05:03:29;;;;;;;12.77;8.40;;;;;;;;;;5051268;28;20198;-54
2023/10/02 05:05:58;;;;;;;12.10;8.57;;;;;;;;;;5051142;28;20196;-54
2023/10/02 05:09:11;;;;;;;9.77;7.47;;;;;;;;;;5051122;28;20200;-54
2023/10/02 05:11:28;;;;;;;11.47;8.20;;;;;;;;;;5050989;28;20215;-54
2023/10/02 05:16:33;;;;;;;13.20;8.07;;;;;;;;;;5050912;28;20659;-54
2023/10/02 05:18:59;;;;;;;12.40;8.07;;;;;;;;;;5051122;28;20598;-54
2023/10/02 05:24:12;;;;;;;11.57;7.87;;;;;;;;;;5054859;28;20682;-54
2023/10/02 05:26:43;;;;;;;13.00;8.00;;;;;;;;;;5054180;28;20210;-54
2023/10/02 05:29:09;;;;;;;13.47;8.90;;;;;;;;;;5054478;28;20279;-54
2023/10/02 05:31:36;;;;;;;13.00;8.63;;;;;;;;;;5054888;28;20200;-54
2023/10/02 05:34:08;;;;;;;11.23;8.00;;;;;;;;;;5054699;28;20219;-54
2023/10/02 05:36:35;;;;;;;11.87;8.67;;;;;;;;;;5054669;28;20780;-54
2023/10/02 05:39:16;;;;;;;11.20;8.17;;;;;;;;;;5054499;28;20653;-54
2023/10/02 05:41:46;;;;;;;14.80;9.60;;;;;;;;;;5054747;28;20307;-54
2023/10/02 05:44:25;;;;;;;13.63;9.33;;;;;;;;;;5054530;28;20274;-54
2023/10/02 05:47:04;;;;;;;12.87;9.13;;;;;;;;;;5054547;28;20705;-54
2023/10/02 05:49:31;;;;;;;12.63;8.80;;;;;;;;;;5054811;28;20570;-54
2023/10/02 05:52:00;;;;;;;12.43;8.43;;;;;;;;;;5054543;28;20207;-54
2023/10/02 05:54:29;;;;;;;14.33;9.47;;;;;;;;;;5054319;28;20207;-54
2023/10/02 05:57:08;;;;;;;11.90;8.03;;;;;;;;;;5054409;28;20200;-54
2023/10/02 05:59:46;;;;;;;13.80;8.90;;;;;;;;;;5054369;28;20606;-54
2023/10/02 06:02:12;;;;;;;13.07;8.90;;;;;;;;;;5054211;28;20203;-54
2023/10/02 06:04:38;;;;;;;13.93;8.93;;;;;;;;;;5054172;28;20663;-54
2023/10/02 06:07:11;;;;;;;13.30;8.80;;;;;;;;;;5054218;28;20211;-54
2023/10/02 06:09:43;;;;;;;13.90;8.43;;;;;;;;;;5054225;28;20619;-54
2023/10/02 06:12:11;;;;;;;14.43;8.43;;;;;;;;;;5054077;28;20223;-54
2023/10/02 06:14:42;;;;;;;13.80;8.37;;;;;;;;;;5054003;28;20200;-54
2023/10/02 06:17:11;;;;;;;12.43;8.87;;;;;;;;;;5053876;28;20728;-54
2023/10/02 06:19:42;;;;;;;12.70;8.30;;;;;;;;;;5053971;28;20223;-54
2023/10/02 06:22:09;;;;;;;12.83;7.60;;;;;;;;;;5054026;28;20307;-54
2023/10/02 06:24:36;;;;;;;12.70;8.47;;;;;;;;;;5053978;28;20278;-54
2023/10/02 06:27:08;;;;;;;14.63;9.33;;;;;;;;;;5053861;28;20242;-54
2023/10/02 06:29:38;;;;;;;11.80;8.67;;;;;;;;;;5053881;28;20195;-54
2023/10/02 06:32:20;;;;;;;14.30;9.07;;;;;;;;;;5053548;28;20215;-54
2023/10/02 06:34:47;;;;;;;13.50;8.77;;;;;;;;;;5053680;28;20199;-54
2023/10/02 06:37:16;;;;;;;13.43;8.90;;;;;;;;;;5053503;28;20196;-54
2023/10/02 06:39:45;;;;;;;12.20;8.40;;;;;;;;;;5053426;28;20311;-54
2023/10/02 06:42:12;;;;;;;13.20;8.80;;;;;;;;;;5053320;28;20643;-54
2023/10/02 06:45:01;;;;;;;13.87;9.30;;;;;;;;;;5053404;28;20279;-54
2023/10/02 06:47:29;;;;;;;15.07;9.33;;;;;;;;;;5053817;28;20262;-54
2023/10/02 06:50:02;;;;;;;12.00;8.53;;;;;;;;;;5053339;28;20939;-54
2023/10/02 06:52:29;;;;;;;13.17;8.77;;;;;;;;;;5053586;28;20208;-54
2023/10/02 06:54:56;;;;;;;14.53;9.23;;;;;;;;;;5053372;28;20204;-52
2023/10/02 06:57:24;;;;;;;12.03;8.50;;;;;;;;;;5053219;28;20200;-52
2023/10/02 06:59:52;;;;;;;12.60;8.77;;;;;;;;;;5053088;28;20662;-54
2023/10/02 07:02:23;;;;;;;12.27;8.73;;;;;;;;;;5053201;28;20196;-54
2023/10/02 07:04:49;;;;;;;13.17;8.80;;;;;;;;;;5053378;28;20210;-54
2023/10/02 07:07:17;;;;;;;12.70;8.87;;;;;;;;;;5053020;28;20200;-54
2023/10/02 07:09:43;;;;;;;13.00;8.80;;;;;;;;;;5053121;28;20204;-54
2023/10/02 07:12:13;;;;;;;12.67;8.40;;;;;;;;;;5052888;28;20196;-54
2023/10/02 07:14:40;;;;;;;14.20;8.97;;;;;;;;;;5052973;28;20207;-54
2023/10/02 07:17:16;;;;;;;14.10;9.07;;;;;;;;;;5052823;28;20200;-54
2023/10/02 07:19:48;;;;;;;15.60;9.43;;;;;;;;;;5052717;28;20228;-55
2023/10/02 07:22:16;;;;;;;15.57;8.73;;;;;;;;;;5052476;28;20236;-54
2023/10/02 07:24:42;;;;;;;12.23;8.57;;;;;;;;;;5052581;28;20670;-54
2023/10/02 07:27:22;;;;;;;14.93;8.77;;;;;;;;;;5052336;28;20734;-54
2023/10/02 07:29:51;;;;;;;14.40;8.77;;;;;;;;;;5052495;28;20210;-54
2023/10/02 07:32:19;;;;;;;13.33;8.53;;;;;;;;;;5052445;28;20254;-54
2023/10/02 07:34:48;;;;;;;13.63;8.53;;;;;;;;;;5052311;28;20196;-54
2023/10/02 07:37:16;;;;;;;13.20;8.20;;;;;;;;;;5052180;28;20211;-54
2023/10/02 07:39:42;;;;;;;12.00;8.57;;;;;;;;;;5052247;28;20273;-54
2023/10/02 07:42:10;;;;;;;12.80;8.57;;;;;;;;;;5052059;28;20278;-54
2023/10/02 07:44:39;;;;;;;10.63;7.30;;;;;;;;;;5051423;28;20251;-53
2023/10/02 07:47:27;;;;;;;12.77;8.60;;;;;;;;;;5052037;28;20201;-54
2023/10/02 07:49:58;;;;;;;12.73;8.07;;;;;;;;;;5051676;28;20232;-54
2023/10/02 07:52:35;;;;;;;12.73;8.00;;;;;;;;;;5051943;28;20674;-53
2023/10/02 07:55:01;;;;;;;11.73;8.03;;;;;;;;;;5051955;28;20228;-53
2023/10/02 07:57:32;;;;;;;12.37;7.80;;;;;;;;;;5051895;28;20205;-54
2023/10/02 07:59:58;;;;;;;13.10;8.33;;;;;;;;;;5051822;28;20197;-53
2023/10/02 08:02:28;;;;;;;14.10;8.60;;;;;;;;;;5051649;28;20204;-53
2023/10/02 08:04:59;;;;;;;11.83;8.30;;;;;;;;;;5051835;28;20276;-53
2023/10/02 08:07:25;;;;;;;14.37;8.33;;;;;;;;;;5051610;28;20210;-53
2023/10/02 08:09:52;;;;;;;13.13;8.23;;;;;;;;;;5051717;28;20279;-53
2023/10/02 08:12:30;;;;;;;12.80;8.40;;;;;;;;;;5051517;28;20196;-51
2023/10/02 08:15:03;;;;;;;12.93;8.10;;;;;;;;;;5046055;28;20210;-52
2023/10/02 08:20:15;;;;;;;11.90;8.13;;;;;;;;;;5051040;28;20206;-53
2023/10/02 08:22:44;;;;;;;12.03;7.97;;;;;;;;;;5047918;28;20289;-57
2023/10/02 08:25:13;;;;;;;11.57;8.23;;;;;;;;;;5051256;28;20226;-55
2023/10/02 08:27:39;;;;;;;12.17;8.17;;;;;;;;;;5051183;28;20188;-52
2023/10/02 08:30:18;;;;;;;12.87;8.00;;;;;;;;;;5051269;28;20295;-50
2023/10/02 08:32:44;;;;;;;14.10;8.87;;;;;;;;;;5051253;28;20705;-55
2023/10/02 08:35:14;;;;;;;13.57;8.27;;;;;;;;;;5051056;28;20709;-52
2023/10/02 08:37:40;;;;;;;13.33;8.30;;;;;;;;;;5051533;28;20282;-53
2023/10/02 08:40:08;;;;;;;14.40;8.87;;;;;;;;;;5051299;28;20285;-54
2023/10/02 08:42:34;;;;;;;13.50;8.10;;;;;;;;;;5051698;28;20206;-52
2023/10/02 08:45:01;;;;;;;12.83;8.47;;;;;;;;;;5051078;28;20215;-52
2023/10/02 08:47:28;;;;;;;14.23;8.60;;;;;;;;;;5051159;28;20196;-52
2023/10/02 08:50:04;;;;;;;14.03;8.43;;;;;;;;;;5051396;28;20287;-52
2023/10/02 08:55:34;;;;;;;12.77;8.53;;;;;;;;;;5047023;28;20219;-53
2023/10/02 08:58:16;;;;;;;11.93;8.33;;;;;;;;;;5055506;28;20568;-53
2023/10/02 09:01:17;;;;;;;13.27;8.57;;;;;;;;;;5055518;28;20358;-53
2023/10/02 09:04:21;;;;;;;11.93;7.97;;;;;;;;;;5055471;28;20667;-53
2023/10/02 09:06:41;;;;;;;13.97;8.63;;;;;;;;;;5055193;28;20200;-53
2023/10/02 09:11:42;;;;;;;12.77;8.53;;;;;;;;;;5055380;28;20200;-53
2023/10/02 09:19:39;;;;;;;12.87;9.03;;;;;;;;;;5055135;28;20765;-53
2023/10/02 09:22:06;;;;;;;15.37;8.83;;;;;;;;;;5054868;28;20250;-53
2023/10/02 09:24:34;;;;;;;14.70;9.20;;;;;;;;;;5054935;28;20374;-52
2023/10/02 09:27:20;;;;;;;12.73;8.60;;;;;;;;;;5054770;28;20210;-52
2023/10/02 09:29:46;;;;;;;16.10;9.00;;;;;;;;;;5054881;28;20208;-52
2023/10/02 09:32:21;;;;;;;15.70;9.33;;;;;;;;;;5054828;28;20602;-53
2023/10/02 09:35:08;;;;;;;14.60;8.73;;;;;;;;;;5054608;28;20683;-52
2023/10/02 09:37:35;;;;;;;12.70;8.07;;;;;;;;;;5054899;28;20296;-53
2023/10/02 09:40:03;;;;;;;13.93;9.50;;;;;;;;;;5054472;28;20232;-54
2023/10/02 09:42:33;;;;;;;12.30;8.07;;;;;;;;;;5054204;28;20358;-52
2023/10/02 09:45:08;;;;;;;15.97;8.73;;;;;;;;;;5054551;28;20201;-53
2023/10/02 09:47:34;;;;;;;13.43;8.60;;;;;;;;;;5054415;28;20204;-55
2023/10/02 09:50:13;;;;;;;13.87;8.50;;;;;;;;;;5054278;28;20237;-52
2023/10/02 09:52:48;;;;;;;14.33;9.00;;;;;;;;;;5051556;28;20204;-54
2023/10/02 09:55:19;;;;;;;12.43;8.43;;;;;;;;;;5053423;28;20232;-52
2023/10/02 09:57:50;;;;;;;13.83;8.80;;;;;;;;;;5070152;28;20203;-53
2023/10/02 10:00:36;;;;;;;13.90;8.87;;;;;;;;;;5053921;28;20214;-52
2023/10/02 10:03:22;;;;;;;12.43;8.13;;;;;;;;;;5053960;28;20564;-52
2023/10/02 10:06:05;;;;;;;23.00;9.23;;;;;;;;;;5053893;28;20576;-55
2023/10/02 10:09:18;;;;;;;14.13;8.73;;;;;;;;;;5051215;28;20214;-55
2023/10/02 10:11:42;;;;;;;12.67;8.63;;;;;;;;;;5051998;28;20648;-56
2023/10/02 10:14:35;;;;;;;11.93;8.07;;;;;;;;;;5053734;28;20218;-55
2023/10/02 10:17:02;;;;;;;11.87;8.37;;;;;;;;;;5053842;28;20198;-55
2023/10/02 10:19:31;;;;;;;13.33;8.73;;;;;;;;;;5053788;28;20198;-55
2023/10/02 10:22:01;;;;;;;14.77;8.47;;;;;;;;;;5053672;28;20530;-55
2023/10/02 10:24:34;;;;;;;12.23;8.53;;;;;;;;;;5053617;28;20416;-54
2023/10/02 10:27:02;;;;;;;12.93;9.03;;;;;;;;;;5053610;28;20315;-54
2023/10/02 10:29:37;;;;;;;11.93;8.57;;;;;;;;;;5039966;28;20211;-56
2023/10/02 10:32:16;;;;;;;13.93;9.10;;;;;;;;;;5043545;28;20205;-56
2023/10/02 10:35:11;;;;;;;12.57;8.67;;;;;;;;;;5052934;28;20218;-56
2023/10/02 10:37:41;;;;;;;14.57;8.43;;;;;;;;;;5053144;28;20694;-57
2023/10/02 10:40:43;;;;;;;15.83;9.10;;;;;;;;;;5052862;28;20596;-57
2023/10/02 10:42:59;;;;;;;12.00;8.30;;;;;;;;;;5052880;28;20208;-57
2023/10/02 10:45:25;;;;;;;13.33;8.47;;;;;;;;;;5052742;28;20206;-56
2023/10/02 10:47:52;;;;;;;10.00;8.17;;;;;;;;;;5052803;28;20735;-56
2023/10/02 10:50:29;;;;;;;14.63;8.80;;;;;;;;;;5052840;28;20554;-56
2023/10/02 10:53:25;;;;;;;14.03;8.67;;;;;;;;;;5053099;28;20212;-57
2023/10/02 10:55:47;;;;;;;12.07;8.43;;;;;;;;;;5052863;28;20260;-56
2023/10/02 10:58:31;;;;;;;11.73;7.90;;;;;;;;;;5052673;28;20284;-56
2023/10/02 11:00:58;;;;;;;12.27;8.33;;;;;;;;;;5052689;28;20616;-56
2023/10/02 11:03:26;;;;;;;15.27;9.20;;;;;;;;;;5052583;28;20227;-55
2023/10/02 11:05:52;;;;;;;13.03;8.60;;;;;;;;;;5052648;28;20585;-55
2023/10/02 11:08:25;;;;;;;14.33;9.30;;;;;;;;;;5052907;28;20192;-55
2023/10/02 11:11:00;;;;;;;13.10;8.80;;;;;;;;;;5052671;28;20243;-56
2023/10/02 11:13:28;;;;;;;13.93;8.63;;;;;;;;;;5052245;28;20200;-56
2023/10/02 11:16:07;;;;;;;11.73;8.53;;;;;;;;;;5052666;28;20311;-57
2023/10/02 11:18:38;;;;;;;13.50;9.03;;;;;;;;;;5048674;28;20222;-55
2023/10/02 11:21:21;;;;;;;12.33;8.33;;;;;;;;;;5051960;28;20633;-55
2023/10/02 11:23:48;;;;;;;14.13;8.90;;;;;;;;;;5052355;28;20201;-55
2023/10/02 11:26:15;;;;;;;14.00;8.37;;;;;;;;;;5052253;28;20227;-56
2023/10/02 11:28:45;;;;;;;12.73;9.03;;;;;;;;;;5048673;28;20287;-54
2023/10/02 11:31:30;;;;;;;14.70;8.70;;;;;;;;;;5052158;28;20226;-55
2023/10/02 11:34:00;;;;;;;14.63;8.63;;;;;;;;;;5052504;28;20219;-55
2023/10/02 11:36:28;;;;;;;13.07;9.07;;;;;;;;;;5052301;28;20216;-54
2023/10/02 11:38:54;;;;;;;13.37;8.87;;;;;;;;;;5052393;28;20232;-55
2023/10/02 11:41:20;;;;;;;14.80;9.20;;;;;;;;;;5052371;28;20299;-55
2023/10/02 11:43:48;;;;;;;12.63;8.63;;;;;;;;;;5052410;28;20240;-54
2023/10/02 11:46:14;;;;;;;13.83;8.80;;;;;;;;;;5052191;28;20292;-55
2023/10/02 11:48:41;;;;;;;13.20;8.57;;;;;;;;;;5052335;28;20284;-55
2023/10/02 11:51:07;;;;;;;13.33;8.30;;;;;;;;;;5052209;28;20199;-54
2023/10/02 11:53:34;;;;;;;17.30;8.67;;;;;;;;;;5050302;28;20196;-56
2023/10/02 11:56:01;;;;;;;15.07;8.57;;;;;;;;;;5051926;28;20285;-55
2023/10/02 11:58:28;;;;;;;13.07;8.53;;;;;;;;;;5051500;28;20292;-55
2023/10/02 12:00:56;;;;;;;16.57;9.23;;;;;;;;;;5051500;28;20226;-56
2023/10/02 12:03:22;;;;;;;12.70;8.40;;;;;;;;;;5051379;28;20585;-55
2023/10/02 12:05:50;;;;;;;12.97;8.47;;;;;;;;;;5051666;28;20741;-55
2023/10/02 12:08:20;;;;;;;13.60;8.90;;;;;;;;;;5051467;28;20196;-56
2023/10/02 12:10:46;;;;;;;13.63;8.33;;;;;;;;;;5051349;28;20674;-54
2023/10/02 12:13:12;;;;;;;16.43;9.93;;;;;;;;;;5051123;28;20203;-55
2023/10/02 12:15:38;;;;;;;14.87;8.40;;;;;;;;;;5051274;28;20204;-54
2023/10/02 12:18:06;;;;;;;13.73;8.50;;;;;;;;;;5051254;28;20288;-54
2023/10/02 12:20:39;;;;;;;14.33;8.27;;;;;;;;;;5051233;28;20205;-55
2023/10/02 12:23:05;;;;;;;15.73;9.00;;;;;;;;;;5051358;28;20745;-55
2023/10/02 12:25:31;;;;;;;15.10;8.70;;;;;;;;;;5051159;28;20205;-54
2023/10/02 12:27:57;;;;;;;12.30;8.40;;;;;;;;;;5051155;28;20203;-55
2023/10/02 12:30:23;;;;;;;12.60;8.90;;;;;;;;;;5050782;28;20202;-55
2023/10/02 12:32:49;;;;;;;13.77;8.47;;;;;;;;;;5051335;28;20208;-54
2023/10/02 12:35:17;;;;;;;12.93;8.40;;;;;;;;;;5051041;28;20255;-55
2023/10/02 12:37:44;;;;;;;12.30;9.13;;;;;;;;;;5051143;28;20219;-55
2023/10/02 12:40:12;;;;;;;11.10;8.50;;;;;;;;;;5050842;28;20267;-55
2023/10/02 12:42:39;;;;;;;13.60;8.43;;;;;;;;;;5050714;28;20321;-55
2023/10/02 12:45:06;;;;;;;15.30;9.33;;;;;;;;;;5051112;28;20237;-55
2023/10/02 12:47:35;;;;;;;15.37;9.53;;;;;;;;;;5050970;28;20200;-55
2023/10/02 12:50:01;;;;;;;13.93;8.93;;;;;;;;;;5051093;28;20251;-55
2023/10/02 12:52:28;;;;;;;14.47;8.77;;;;;;;;;;5050768;28;20542;-55
2023/10/02 12:54:54;;;;;;;16.93;9.77;;;;;;;;;;5051208;28;20205;-55
2023/10/02 12:57:20;;;;;;;12.93;8.53;;;;;;;;;;5051255;28;20227;-55
2023/10/02 12:59:46;;;;;;;14.03;8.70;;;;;;;;;;5051485;28;20212;-56
2023/10/02 13:02:13;;;;;;;14.03;8.77;;;;;;;;;;5051264;28;20699;-56
2023/10/02 13:04:39;;;;;;;13.90;9.43;;;;;;;;;;5051330;28;20212;-55
2023/10/02 13:07:05;;;;;;;12.50;8.70;;;;;;;;;;5051341;28;20204;-56
2023/10/02 13:09:32;;;;;;;13.57;9.20;;;;;;;;;;5051227;28;20197;-56
2023/10/02 13:12:00;;;;;;;15.97;9.63;;;;;;;;;;5051226;28;20658;-55
2023/10/02 13:14:26;;;;;;;14.77;8.60;;;;;;;;;;5051059;28;20228;-56
2023/10/02 13:16:53;;;;;;;12.63;9.07;;;;;;;;;;5051224;28;20232;-55
2023/10/02 13:19:19;;;;;;;14.20;8.53;;;;;;;;;;5051131;28;20263;-56
2023/10/02 13:21:51;;;;;;;14.80;8.97;;;;;;;;;;5049757;28;20276;-56
2023/10/02 13:24:17;;;;;;;14.10;8.47;;;;;;;;;;5051147;28;20210;-56
2023/10/02 13:26:45;;;;;;;13.07;8.83;;;;;;;;;;5051170;28;20205;-56
2023/10/02 13:29:11;;;;;;;12.73;8.40;;;;;;;;;;5050967;28;20209;-56
2023/10/02 13:31:37;;;;;;;13.97;8.70;;;;;;;;;;5050900;28;20216;-56
2023/10/02 13:34:06;;;;;;;12.23;8.97;;;;;;;;;;5051059;28;20291;-56
2023/10/02 13:36:33;;;;;;;12.97;8.50;;;;;;;;;;5050986;28;20210;-56
2023/10/02 13:38:59;;;;;;;12.33;8.30;;;;;;;;;;5050777;28;20249;-56
2023/10/02 13:41:26;;;;;;;12.87;8.80;;;;;;;;;;5050745;28;20225;-56
2023/10/02 13:43:55;;;;;;;12.13;8.60;;;;;;;;;;5053504;28;20660;-56
2023/10/02 13:46:22;;;;;;;11.13;8.57;;;;;;;;;;5054564;28;20264;-55
2023/10/02 13:48:48;;;;;;;14.97;9.07;;;;;;;;;;5054745;28;20205;-55
2023/10/02 13:51:16;;;;;;;13.33;8.77;;;;;;;;;;5054427;28;20195;-55
2023/10/02 13:53:43;;;;;;;12.50;8.63;;;;;;;;;;5052482;28;20234;-54
2023/10/02 13:56:10;;;;;;;13.27;8.30;;;;;;;;;;5053991;28;20201;-55
2023/10/02 13:58:36;;;;;;;11.80;7.97;;;;;;;;;;5053886;28;20324;-55
2023/10/02 14:01:05;;;;;;;12.13;8.30;;;;;;;;;;5054210;28;20284;-55
2023/10/02 14:03:31;;;;;;;11.27;8.23;;;;;;;;;;5053903;28;20206;-54
2023/10/02 14:05:58;;;;;;;11.47;8.60;;;;;;;;;;5053726;28;20194;-54
2023/10/02 14:08:24;;;;;;;12.73;9.17;;;;;;;;;;5053647;28;20250;-54
2023/10/02 14:10:50;;;;;;;14.13;8.93;;;;;;;;;;5053979;28;20207;-56
2023/10/02 14:13:16;;;;;;;13.70;8.63;;;;;;;;;;5053550;28;20619;-55
2023/10/02 14:15:42;;;;;;;13.93;9.23;;;;;;;;;;5053438;28;20652;-55
2023/10/02 14:18:09;;;;;;;11.73;8.60;;;;;;;;;;5053535;28;20568;-55
2023/10/02 14:20:38;;;;;;;14.10;8.73;;;;;;;;;;5053453;28;20194;-54
2023/10/02 14:23:05;;;;;;;14.33;9.27;;;;;;;;;;5053762;28;20261;-54
2023/10/02 14:25:32;;;;;;;12.90;9.17;;;;;;;;;;5053427;28;20198;-55
2023/10/02 14:27:58;;;;;;;13.17;8.87;;;;;;;;;;5053269;28;20206;-54
2023/10/02 14:30:25;;;;;;;14.03;9.17;;;;;;;;;;5053282;28;20203;-55
2023/10/02 14:32:52;;;;;;;13.47;9.37;;;;;;;;;;5053323;28;20225;-54
2023/10/02 14:35:20;;;;;;;13.13;8.73;;;;;;;;;;5053242;28;20297;-55
2023/10/02 14:37:52;;;;;;;15.20;9.47;;;;;;;;;;5053528;28;20302;-55
2023/10/02 14:40:29;;;;;;;13.80;9.17;;;;;;;;;;5053172;28;20549;-55
2023/10/02 14:42:56;;;;;;;14.53;9.57;;;;;;;;;;5053072;28;20258;-55
2023/10/02 14:45:26;;;;;;;13.20;8.83;;;;;;;;;;5053097;28;20433;-55
2023/10/02 14:47:53;;;;;;;11.20;8.43;;;;;;;;;;5052987;28;20277;-56
2023/10/02 14:50:22;;;;;;;13.30;8.47;;;;;;;;;;5053100;28;20198;-55
2023/10/02 14:52:50;;;;;;;11.50;8.33;;;;;;;;;;5053062;28;20207;-55
2023/10/02 14:55:17;;;;;;;12.50;8.60;;;;;;;;;;5052658;28;20210;-55
2023/10/02 14:57:45;;;;;;;11.13;8.37;;;;;;;;;;5052644;28;20605;-54
2023/10/02 15:00:12;;;;;;;13.53;8.57;;;;;;;;;;5052784;28;20198;-54
2023/10/02 15:02:38;;;;;;;12.93;8.10;;;;;;;;;;5052594;28;20284;-55
2023/10/02 15:05:04;;;;;;;13.60;8.87;;;;;;;;;;5052480;28;20199;-55
2023/10/02 15:07:32;;;;;;;11.50;8.90;;;;;;;;;;5052431;28;20197;-55
2023/10/02 15:09:59;;;;;;;13.20;8.97;;;;;;;;;;5052728;28;20213;-55
2023/10/02 15:12:25;;;;;;;12.33;8.83;;;;;;;;;;5052473;28;20208;-55
2023/10/02 15:14:51;;;;;;;13.10;8.47;;;;;;;;;;5052516;28;20676;-55
2023/10/02 15:17:19;;;;;;;13.83;9.37;;;;;;;;;;5052613;28;20220;-55
2023/10/02 15:19:45;;;;;;;14.10;8.87;;;;;;;;;;5052246;28;20203;-54
2023/10/02 15:22:11;;;;;;;15.70;9.80;;;;;;;;;;5052339;28;20749;-55
2023/10/02 15:24:38;;;;;;;13.57;9.80;;;;;;;;;;5052294;28;20205;-56
2023/10/02 15:27:05;;;;;;;14.93;9.77;;;;;;;;;;5052418;28;20197;-56
2023/10/02 15:29:31;;;;;;;15.47;10.17;;;;;;;;;;5052141;28;20200;-54
2023/10/02 15:31:57;;;;;;;15.77;9.57;;;;;;;;;;5052113;28;20213;-54